sensor_id;sensor_type;location;lat;lon;timestamp;P1;durP1;ratioP1;P2;durP2;ratioP2
67041;SDS011;53949;47.790;18.750;2024-01-27T00:01:59;5.05;;;3.70;;
67041;SDS011;53949;47.790;18.750;2024-01-27T00:05:02;5.40;;;3.08;;
67041;SDS011;53949;47.790;18.750;2024-01-27T00:08:09;3.20;;;2.60;;
67041;SDS011;53949;47.790;18.750;2024-01-27T00:11:14;3.17;;;2.27;;
67041;SDS011;53949;47.790;18.750;2024-01-27T00:14:17;6.25;;;3.45;;
67041;SDS011;53949;47.790;18.750;2024-01-27T00:17:21;4.55;;;2.20;;
67041;SDS011;53949;47.790;18.750;2024-01-27T00:20:26;2.45;;;2.20;;
67041;SDS011;53949;47.790;18.750;2024-01-27T00:23:31;3.15;;;1.92;;
67041;SDS011;53949;47.790;18.750;2024-01-27T00:26:35;1.50;;;1.23;;
67041;SDS011;53949;47.790;18.750;2024-01-27T00:32:44;2.75;;;1.75;;
67041;SDS011;53949;47.790;18.750;2024-01-27T00:35:48;3.90;;;1.10;;
67041;SDS011;53949;47.790;18.750;2024-01-27T00:38:52;2.33;;;1.67;;
67041;SDS011;53949;47.790;18.750;2024-01-27T00:41:55;2.92;;;1.30;;
67041;SDS011;53949;47.790;18.750;2024-01-27T00:48:05;0.95;;;0.90;;
67041;SDS011;53949;47.790;18.750;2024-01-27T00:51:08;1.33;;;1.23;;
67041;SDS011;53949;47.790;18.750;2024-01-27T00:54:12;2.28;;;1.10;;
67041;SDS011;53949;47.790;18.750;2024-01-27T00:57:16;2.47;;;0.88;;
67041;SDS011;53949;47.790;18.750;2024-01-27T01:00:19;1.62;;;1.50;;
67041;SDS011;53949;47.790;18.750;2024-01-27T01:03:23;2.17;;;0.88;;
67041;SDS011;53949;47.790;18.750;2024-01-27T01:06:26;2.50;;;1.02;;
67041;SDS011;53949;47.790;18.750;2024-01-27T01:09:29;1.12;;;1.05;;
67041;SDS011;53949;47.790;18.750;2024-01-27T01:12:33;2.40;;;1.05;;
67041;SDS011;53949;47.790;18.750;2024-01-27T01:15:36;1.65;;;1.20;;
67041;SDS011;53949;47.790;18.750;2024-01-27T01:18:40;3.03;;;1.42;;
67041;SDS011;53949;47.790;18.750;2024-01-27T01:21:43;3.20;;;1.60;;
67041;SDS011;53949;47.790;18.750;2024-01-27T01:24:47;1.90;;;1.00;;
67041;SDS011;53949;47.790;18.750;2024-01-27T01:27:51;0.90;;;0.90;;
67041;SDS011;53949;47.790;18.750;2024-01-27T01:33:58;2.58;;;0.90;;
67041;SDS011;53949;47.790;18.750;2024-01-27T01:37:02;0.98;;;0.93;;
67041;SDS011;53949;47.790;18.750;2024-01-27T01:40:05;1.10;;;1.00;;
67041;SDS011;53949;47.790;18.750;2024-01-27T01:43:10;1.50;;;0.75;;
67041;SDS011;53949;47.790;18.750;2024-01-27T01:46:16;0.95;;;0.82;;
67041;SDS011;53949;47.790;18.750;2024-01-27T01:49:20;1.58;;;0.85;;
67041;SDS011;53949;47.790;18.750;2024-01-27T01:52:23;0.60;;;0.60;;
67041;SDS011;53949;47.790;18.750;2024-01-27T01:55:27;3.75;;;0.80;;
67041;SDS011;53949;47.790;18.750;2024-01-27T01:58:31;1.02;;;0.73;;
67041;SDS011;53949;47.790;18.750;2024-01-27T02:01:37;2.75;;;1.15;;
67041;SDS011;53949;47.790;18.750;2024-01-27T02:04:47;0.75;;;0.60;;
67041;SDS011;53949;47.790;18.750;2024-01-27T02:07:50;1.42;;;0.70;;
67041;SDS011;53949;47.790;18.750;2024-01-27T02:10:54;0.50;;;0.50;;
67041;SDS011;53949;47.790;18.750;2024-01-27T02:14:01;0.68;;;0.68;;
67041;SDS011;53949;47.790;18.750;2024-01-27T02:17:05;0.65;;;0.65;;
67041;SDS011;53949;47.790;18.750;2024-01-27T02:20:10;1.87;;;0.80;;
67041;SDS011;53949;47.790;18.750;2024-01-27T02:23:14;0.87;;;0.50;;
67041;SDS011;53949;47.790;18.750;2024-01-27T02:26:17;0.77;;;0.50;;
67041;SDS011;53949;47.790;18.750;2024-01-27T02:29:22;0.68;;;0.52;;
67041;SDS011;53949;47.790;18.750;2024-01-27T02:32:25;0.65;;;0.65;;
67041;SDS011;53949;47.790;18.750;2024-01-27T02:35:29;0.47;;;0.47;;
67041;SDS011;53949;47.790;18.750;2024-01-27T02:38:32;1.20;;;0.70;;
67041;SDS011;53949;47.790;18.750;2024-01-27T02:41:39;1.55;;;0.60;;
67041;SDS011;53949;47.790;18.750;2024-01-27T02:44:42;1.37;;;0.60;;
67041;SDS011;53949;47.790;18.750;2024-01-27T02:47:45;1.40;;;0.50;;
67041;SDS011;53949;47.790;18.750;2024-01-27T02:50:49;1.60;;;0.50;;
67041;SDS011;53949;47.790;18.750;2024-01-27T02:53:52;0.68;;;0.68;;
67041;SDS011;53949;47.790;18.750;2024-01-27T02:56:55;1.30;;;0.68;;
67041;SDS011;53949;47.790;18.750;2024-01-27T02:59:58;4.62;;;0.70;;
67041;SDS011;53949;47.790;18.750;2024-01-27T03:03:01;0.60;;;0.57;;
67041;SDS011;53949;47.790;18.750;2024-01-27T03:06:04;0.47;;;0.47;;
67041;SDS011;53949;47.790;18.750;2024-01-27T03:09:09;1.07;;;0.50;;
67041;SDS011;53949;47.790;18.750;2024-01-27T03:12:15;1.52;;;0.60;;
67041;SDS011;53949;47.790;18.750;2024-01-27T03:15:18;1.05;;;0.57;;
67041;SDS011;53949;47.790;18.750;2024-01-27T03:18:22;0.50;;;0.50;;
67041;SDS011;53949;47.790;18.750;2024-01-27T03:24:30;1.37;;;0.75;;
67041;SDS011;53949;47.790;18.750;2024-01-27T03:27:34;0.62;;;0.62;;
67041;SDS011;53949;47.790;18.750;2024-01-27T03:30:38;3.97;;;0.60;;
67041;SDS011;53949;47.790;18.750;2024-01-27T03:33:41;0.57;;;0.57;;
67041;SDS011;53949;47.790;18.750;2024-01-27T03:36:48;0.80;;;0.73;;
67041;SDS011;53949;47.790;18.750;2024-01-27T03:39:55;1.40;;;0.60;;
67041;SDS011;53949;47.790;18.750;2024-01-27T03:42:58;1.85;;;0.47;;
67041;SDS011;53949;47.790;18.750;2024-01-27T03:46:05;0.85;;;0.57;;
67041;SDS011;53949;47.790;18.750;2024-01-27T03:49:09;1.87;;;0.60;;
67041;SDS011;53949;47.790;18.750;2024-01-27T03:52:12;1.10;;;0.43;;
67041;SDS011;53949;47.790;18.750;2024-01-27T03:55:16;0.95;;;0.80;;
67041;SDS011;53949;47.790;18.750;2024-01-27T03:58:22;0.85;;;0.73;;
67041;SDS011;53949;47.790;18.750;2024-01-27T04:01:25;2.37;;;0.60;;
67041;SDS011;53949;47.790;18.750;2024-01-27T04:04:29;0.52;;;0.52;;
67041;SDS011;53949;47.790;18.750;2024-01-27T04:07:32;2.42;;;0.77;;
67041;SDS011;53949;47.790;18.750;2024-01-27T04:10:36;1.23;;;0.82;;
67041;SDS011;53949;47.790;18.750;2024-01-27T04:13:43;1.25;;;0.70;;
67041;SDS011;53949;47.790;18.750;2024-01-27T04:16:46;0.60;;;0.60;;
67041;SDS011;53949;47.790;18.750;2024-01-27T04:19:51;0.70;;;0.70;;
67041;SDS011;53949;47.790;18.750;2024-01-27T04:22:56;1.17;;;0.62;;
67041;SDS011;53949;47.790;18.750;2024-01-27T04:25:59;0.80;;;0.70;;
67041;SDS011;53949;47.790;18.750;2024-01-27T04:29:03;2.35;;;0.75;;
67041;SDS011;53949;47.790;18.750;2024-01-27T04:32:06;1.65;;;0.70;;
67041;SDS011;53949;47.790;18.750;2024-01-27T04:35:09;1.17;;;0.98;;
67041;SDS011;53949;47.790;18.750;2024-01-27T04:38:16;2.55;;;0.80;;
67041;SDS011;53949;47.790;18.750;2024-01-27T04:41:19;1.17;;;0.90;;
67041;SDS011;53949;47.790;18.750;2024-01-27T04:44:22;0.50;;;0.50;;
67041;SDS011;53949;47.790;18.750;2024-01-27T04:47:26;1.90;;;0.77;;
67041;SDS011;53949;47.790;18.750;2024-01-27T04:50:29;0.50;;;0.50;;
67041;SDS011;53949;47.790;18.750;2024-01-27T04:53:33;0.65;;;0.62;;
67041;SDS011;53949;47.790;18.750;2024-01-27T04:56:36;1.30;;;1.02;;
67041;SDS011;53949;47.790;18.750;2024-01-27T04:59:39;1.58;;;1.10;;
67041;SDS011;53949;47.790;18.750;2024-01-27T05:02:43;2.95;;;1.37;;
67041;SDS011;53949;47.790;18.750;2024-01-27T05:05:48;1.25;;;0.50;;
67041;SDS011;53949;47.790;18.750;2024-01-27T05:08:51;6.65;;;1.12;;
67041;SDS011;53949;47.790;18.750;2024-01-27T05:11:55;1.70;;;1.00;;
67041;SDS011;53949;47.790;18.750;2024-01-27T05:14:58;5.40;;;2.12;;
67041;SDS011;53949;47.790;18.750;2024-01-27T05:18:02;2.65;;;0.77;;
67041;SDS011;53949;47.790;18.750;2024-01-27T05:21:05;2.13;;;0.80;;
67041;SDS011;53949;47.790;18.750;2024-01-27T05:24:09;2.12;;;0.80;;
67041;SDS011;53949;47.790;18.750;2024-01-27T05:27:12;6.35;;;0.90;;
67041;SDS011;53949;47.790;18.750;2024-01-27T05:30:16;3.08;;;0.98;;
67041;SDS011;53949;47.790;18.750;2024-01-27T05:33:20;5.75;;;1.30;;
67041;SDS011;53949;47.790;18.750;2024-01-27T05:36:23;0.98;;;0.50;;
67041;SDS011;53949;47.790;18.750;2024-01-27T05:39:26;2.25;;;0.68;;
67041;SDS011;53949;47.790;18.750;2024-01-27T05:42:32;7.30;;;0.88;;
67041;SDS011;53949;47.790;18.750;2024-01-27T05:45:35;0.82;;;0.57;;
67041;SDS011;53949;47.790;18.750;2024-01-27T05:48:40;5.57;;;1.20;;
67041;SDS011;53949;47.790;18.750;2024-01-27T05:51:44;4.60;;;0.98;;
67041;SDS011;53949;47.790;18.750;2024-01-27T05:54:48;1.98;;;1.37;;
67041;SDS011;53949;47.790;18.750;2024-01-27T05:57:52;1.42;;;1.00;;
67041;SDS011;53949;47.790;18.750;2024-01-27T06:00:55;2.55;;;0.82;;
67041;SDS011;53949;47.790;18.750;2024-01-27T06:03:58;1.50;;;0.70;;
67041;SDS011;53949;47.790;18.750;2024-01-27T06:07:03;1.77;;;1.23;;
67041;SDS011;53949;47.790;18.750;2024-01-27T06:10:07;3.85;;;1.50;;
67041;SDS011;53949;47.790;18.750;2024-01-27T06:13:12;4.28;;;1.15;;
67041;SDS011;53949;47.790;18.750;2024-01-27T06:16:17;2.67;;;1.12;;
67041;SDS011;53949;47.790;18.750;2024-01-27T06:19:23;9.05;;;1.30;;
67041;SDS011;53949;47.790;18.750;2024-01-27T06:22:29;2.65;;;1.08;;
67041;SDS011;53949;47.790;18.750;2024-01-27T06:25:35;0.95;;;0.68;;
67041;SDS011;53949;47.790;18.750;2024-01-27T06:28:38;3.60;;;1.20;;
67041;SDS011;53949;47.790;18.750;2024-01-27T06:31:41;2.05;;;0.82;;
67041;SDS011;53949;47.790;18.750;2024-01-27T06:34:45;2.70;;;1.30;;
67041;SDS011;53949;47.790;18.750;2024-01-27T06:37:48;2.92;;;0.70;;
67041;SDS011;53949;47.790;18.750;2024-01-27T06:40:51;5.60;;;1.20;;
67041;SDS011;53949;47.790;18.750;2024-01-27T06:43:54;1.33;;;0.93;;
67041;SDS011;53949;47.790;18.750;2024-01-27T06:46:58;2.97;;;1.05;;
67041;SDS011;53949;47.790;18.750;2024-01-27T06:50:01;1.70;;;1.02;;
67041;SDS011;53949;47.790;18.750;2024-01-27T06:53:06;1.08;;;1.08;;
67041;SDS011;53949;47.790;18.750;2024-01-27T06:56:10;1.70;;;1.00;;
67041;SDS011;53949;47.790;18.750;2024-01-27T06:59:17;2.00;;;0.80;;
67041;SDS011;53949;47.790;18.750;2024-01-27T07:02:24;0.82;;;0.62;;
67041;SDS011;53949;47.790;18.750;2024-01-27T07:05:29;1.30;;;0.75;;
67041;SDS011;53949;47.790;18.750;2024-01-27T07:08:32;2.17;;;0.80;;
67041;SDS011;53949;47.790;18.750;2024-01-27T07:11:40;2.55;;;1.00;;
67041;SDS011;53949;47.790;18.750;2024-01-27T07:14:42;1.33;;;0.77;;
67041;SDS011;53949;47.790;18.750;2024-01-27T07:17:49;1.85;;;1.00;;
67041;SDS011;53949;47.790;18.750;2024-01-27T07:20:52;4.22;;;1.48;;
67041;SDS011;53949;47.790;18.750;2024-01-27T07:23:58;2.37;;;1.60;;
67041;SDS011;53949;47.790;18.750;2024-01-27T07:27:01;7.28;;;2.28;;
67041;SDS011;53949;47.790;18.750;2024-01-27T07:30:07;3.00;;;1.40;;
67041;SDS011;53949;47.790;18.750;2024-01-27T07:33:12;2.62;;;1.10;;
67041;SDS011;53949;47.790;18.750;2024-01-27T07:36:16;3.25;;;1.37;;
67041;SDS011;53949;47.790;18.750;2024-01-27T07:39:21;2.60;;;1.10;;
67041;SDS011;53949;47.790;18.750;2024-01-27T07:42:26;6.47;;;1.60;;
67041;SDS011;53949;47.790;18.750;2024-01-27T07:48:36;0.70;;;0.70;;
67041;SDS011;53949;47.790;18.750;2024-01-27T07:51:39;3.03;;;0.60;;
67041;SDS011;53949;47.790;18.750;2024-01-27T07:54:42;3.30;;;1.08;;
67041;SDS011;53949;47.790;18.750;2024-01-27T07:57:45;2.50;;;0.88;;
67041;SDS011;53949;47.790;18.750;2024-01-27T08:00:52;3.08;;;1.37;;
67041;SDS011;53949;47.790;18.750;2024-01-27T08:03:58;5.10;;;0.80;;
67041;SDS011;53949;47.790;18.750;2024-01-27T08:07:04;1.67;;;0.70;;
67041;SDS011;53949;47.790;18.750;2024-01-27T08:10:13;2.53;;;0.50;;
67041;SDS011;53949;47.790;18.750;2024-01-27T08:13:19;0.32;;;0.32;;
67041;SDS011;53949;47.790;18.750;2024-01-27T08:16:22;0.82;;;0.60;;
67041;SDS011;53949;47.790;18.750;2024-01-27T08:19:26;3.08;;;0.93;;
67041;SDS011;53949;47.790;18.750;2024-01-27T08:22:30;0.73;;;0.70;;
67041;SDS011;53949;47.790;18.750;2024-01-27T08:25:33;1.52;;;0.55;;
67041;SDS011;53949;47.790;18.750;2024-01-27T08:28:37;0.40;;;0.40;;
67041;SDS011;53949;47.790;18.750;2024-01-27T08:31:40;2.67;;;0.80;;
67041;SDS011;53949;47.790;18.750;2024-01-27T08:34:43;1.95;;;0.85;;
67041;SDS011;53949;47.790;18.750;2024-01-27T08:37:47;3.80;;;0.98;;
67041;SDS011;53949;47.790;18.750;2024-01-27T08:40:50;3.05;;;1.35;;
67041;SDS011;53949;47.790;18.750;2024-01-27T08:43:53;3.65;;;2.87;;
67041;SDS011;53949;47.790;18.750;2024-01-27T08:46:57;1.58;;;1.42;;
67041;SDS011;53949;47.790;18.750;2024-01-27T08:50:04;0.85;;;0.85;;
67041;SDS011;53949;47.790;18.750;2024-01-27T08:53:08;2.40;;;1.05;;
67041;SDS011;53949;47.790;18.750;2024-01-27T08:56:11;1.62;;;1.20;;
67041;SDS011;53949;47.790;18.750;2024-01-27T08:59:17;0.55;;;0.50;;
67041;SDS011;53949;47.790;18.750;2024-01-27T09:02:20;1.85;;;0.50;;
67041;SDS011;53949;47.790;18.750;2024-01-27T09:05:23;1.65;;;0.80;;
67041;SDS011;53949;47.790;18.750;2024-01-27T09:08:27;4.00;;;0.77;;
67041;SDS011;53949;47.790;18.750;2024-01-27T09:11:31;1.20;;;0.88;;
67041;SDS011;53949;47.790;18.750;2024-01-27T09:14:34;3.70;;;0.60;;
67041;SDS011;53949;47.790;18.750;2024-01-27T09:17:38;1.55;;;1.08;;
67041;SDS011;53949;47.790;18.750;2024-01-27T09:20:42;0.70;;;0.70;;
67041;SDS011;53949;47.790;18.750;2024-01-27T09:23:46;1.85;;;0.82;;
67041;SDS011;53949;47.790;18.750;2024-01-27T09:26:50;2.42;;;1.05;;
67041;SDS011;53949;47.790;18.750;2024-01-27T09:29:54;1.10;;;0.88;;
67041;SDS011;53949;47.790;18.750;2024-01-27T09:32:57;6.65;;;1.20;;
67041;SDS011;53949;47.790;18.750;2024-01-27T09:36:01;0.62;;;0.60;;
67041;SDS011;53949;47.790;18.750;2024-01-27T09:39:04;0.80;;;0.77;;
67041;SDS011;53949;47.790;18.750;2024-01-27T09:42:07;2.83;;;0.77;;
67041;SDS011;53949;47.790;18.750;2024-01-27T09:45:18;1.30;;;0.75;;
67041;SDS011;53949;47.790;18.750;2024-01-27T09:48:23;1.95;;;0.90;;
67041;SDS011;53949;47.790;18.750;2024-01-27T09:51:26;1.75;;;0.80;;
67041;SDS011;53949;47.790;18.750;2024-01-27T09:54:30;4.40;;;1.10;;
67041;SDS011;53949;47.790;18.750;2024-01-27T09:57:33;1.27;;;0.88;;
67041;SDS011;53949;47.790;18.750;2024-01-27T10:00:39;1.75;;;0.98;;
67041;SDS011;53949;47.790;18.750;2024-01-27T10:03:43;2.50;;;0.77;;
67041;SDS011;53949;47.790;18.750;2024-01-27T10:06:47;6.50;;;1.48;;
67041;SDS011;53949;47.790;18.750;2024-01-27T10:09:54;3.92;;;1.02;;
67041;SDS011;53949;47.790;18.750;2024-01-27T10:12:58;2.40;;;1.30;;
67041;SDS011;53949;47.790;18.750;2024-01-27T10:16:06;2.00;;;1.12;;
67041;SDS011;53949;47.790;18.750;2024-01-27T10:19:14;3.80;;;1.08;;
67041;SDS011;53949;47.790;18.750;2024-01-27T10:22:20;1.30;;;1.30;;
67041;SDS011;53949;47.790;18.750;2024-01-27T10:25:23;1.12;;;0.77;;
67041;SDS011;53949;47.790;18.750;2024-01-27T10:28:27;0.85;;;0.52;;
67041;SDS011;53949;47.790;18.750;2024-01-27T10:31:36;2.05;;;0.70;;
67041;SDS011;53949;47.790;18.750;2024-01-27T10:34:40;2.33;;;0.98;;
67041;SDS011;53949;47.790;18.750;2024-01-27T10:37:43;3.30;;;1.12;;
67041;SDS011;53949;47.790;18.750;2024-01-27T10:40:46;0.98;;;0.88;;
67041;SDS011;53949;47.790;18.750;2024-01-27T10:43:50;2.97;;;1.15;;
67041;SDS011;53949;47.790;18.750;2024-01-27T10:46:55;1.40;;;1.25;;
67041;SDS011;53949;47.790;18.750;2024-01-27T10:50:00;3.50;;;1.08;;
67041;SDS011;53949;47.790;18.750;2024-01-27T10:53:04;4.47;;;0.98;;
67041;SDS011;53949;47.790;18.750;2024-01-27T10:56:27;3.53;;;1.35;;
67041;SDS011;53949;47.790;18.750;2024-01-27T10:59:31;1.75;;;1.00;;
67041;SDS011;53949;47.790;18.750;2024-01-27T11:02:35;2.70;;;1.48;;
67041;SDS011;53949;47.790;18.750;2024-01-27T11:05:42;1.87;;;1.05;;
67041;SDS011;53949;47.790;18.750;2024-01-27T11:08:47;1.33;;;0.47;;
67041;SDS011;53949;47.790;18.750;2024-01-27T11:11:52;2.05;;;1.17;;
67041;SDS011;53949;47.790;18.750;2024-01-27T11:14:57;3.12;;;1.48;;
67041;SDS011;53949;47.790;18.750;2024-01-27T11:18:04;2.30;;;0.80;;
67041;SDS011;53949;47.790;18.750;2024-01-27T11:21:07;5.43;;;1.15;;
67041;SDS011;53949;47.790;18.750;2024-01-27T11:24:17;6.80;;;1.65;;
67041;SDS011;53949;47.790;18.750;2024-01-27T11:27:26;1.55;;;1.40;;
67041;SDS011;53949;47.790;18.750;2024-01-27T11:30:32;1.98;;;0.70;;
67041;SDS011;53949;47.790;18.750;2024-01-27T11:33:44;1.02;;;0.70;;
67041;SDS011;53949;47.790;18.750;2024-01-27T11:36:50;1.67;;;0.90;;
67041;SDS011;53949;47.790;18.750;2024-01-27T11:40:02;1.98;;;0.95;;
67041;SDS011;53949;47.790;18.750;2024-01-27T11:43:11;3.80;;;1.00;;
67041;SDS011;53949;47.790;18.750;2024-01-27T11:46:16;1.73;;;1.23;;
67041;SDS011;53949;47.790;18.750;2024-01-27T11:49:20;3.42;;;1.05;;
67041;SDS011;53949;47.790;18.750;2024-01-27T11:52:25;4.50;;;1.40;;
67041;SDS011;53949;47.790;18.750;2024-01-27T11:55:29;3.70;;;1.35;;
67041;SDS011;53949;47.790;18.750;2024-01-27T11:58:33;4.18;;;1.12;;
67041;SDS011;53949;47.790;18.750;2024-01-27T12:01:37;3.00;;;0.95;;
67041;SDS011;53949;47.790;18.750;2024-01-27T12:07:45;1.55;;;1.02;;
67041;SDS011;53949;47.790;18.750;2024-01-27T12:10:48;1.12;;;0.80;;
67041;SDS011;53949;47.790;18.750;2024-01-27T12:13:52;2.58;;;1.10;;
67041;SDS011;53949;47.790;18.750;2024-01-27T12:16:56;4.32;;;1.37;;
67041;SDS011;53949;47.790;18.750;2024-01-27T12:20:00;1.77;;;1.20;;
67041;SDS011;53949;47.790;18.750;2024-01-27T12:23:04;4.55;;;1.30;;
67041;SDS011;53949;47.790;18.750;2024-01-27T12:26:13;2.37;;;1.13;;
67041;SDS011;53949;47.790;18.750;2024-01-27T12:29:19;2.30;;;1.27;;
67041;SDS011;53949;47.790;18.750;2024-01-27T12:32:23;3.12;;;1.27;;
67041;SDS011;53949;47.790;18.750;2024-01-27T12:35:27;7.32;;;1.42;;
67041;SDS011;53949;47.790;18.750;2024-01-27T12:38:32;2.65;;;1.10;;
67041;SDS011;53949;47.790;18.750;2024-01-27T12:41:36;2.35;;;1.48;;
67041;SDS011;53949;47.790;18.750;2024-01-27T12:44:39;2.47;;;0.85;;
67041;SDS011;53949;47.790;18.750;2024-01-27T12:47:45;1.67;;;1.37;;
67041;SDS011;53949;47.790;18.750;2024-01-27T12:50:49;3.22;;;1.15;;
67041;SDS011;53949;47.790;18.750;2024-01-27T12:53:53;2.55;;;0.95;;
67041;SDS011;53949;47.790;18.750;2024-01-27T12:56:58;1.83;;;1.10;;
67041;SDS011;53949;47.790;18.750;2024-01-27T13:00:07;0.75;;;0.65;;
67041;SDS011;53949;47.790;18.750;2024-01-27T13:03:13;1.92;;;1.30;;
67041;SDS011;53949;47.790;18.750;2024-01-27T13:06:16;2.12;;;1.20;;
67041;SDS011;53949;47.790;18.750;2024-01-27T13:09:22;1.20;;;0.88;;
67041;SDS011;53949;47.790;18.750;2024-01-27T13:12:27;5.53;;;0.95;;
67041;SDS011;53949;47.790;18.750;2024-01-27T13:15:31;6.15;;;1.00;;
67041;SDS011;53949;47.790;18.750;2024-01-27T13:18:34;3.60;;;1.12;;
67041;SDS011;53949;47.790;18.750;2024-01-27T13:21:38;3.25;;;0.93;;
67041;SDS011;53949;47.790;18.750;2024-01-27T13:24:44;1.75;;;0.77;;
67041;SDS011;53949;47.790;18.750;2024-01-27T13:27:47;3.35;;;0.93;;
67041;SDS011;53949;47.790;18.750;2024-01-27T13:30:51;1.98;;;1.27;;
67041;SDS011;53949;47.790;18.750;2024-01-27T13:37:04;2.12;;;0.95;;
67041;SDS011;53949;47.790;18.750;2024-01-27T13:40:09;2.30;;;0.90;;
67041;SDS011;53949;47.790;18.750;2024-01-27T13:43:14;3.72;;;2.03;;
67041;SDS011;53949;47.790;18.750;2024-01-27T13:46:19;3.10;;;1.20;;
67041;SDS011;53949;47.790;18.750;2024-01-27T13:49:22;3.80;;;2.15;;
67041;SDS011;53949;47.790;18.750;2024-01-27T13:52:25;3.25;;;1.60;;
67041;SDS011;53949;47.790;18.750;2024-01-27T13:55:29;2.75;;;0.95;;
67041;SDS011;53949;47.790;18.750;2024-01-27T13:58:33;6.97;;;1.15;;
67041;SDS011;53949;47.790;18.750;2024-01-27T14:01:39;2.35;;;1.17;;
67041;SDS011;53949;47.790;18.750;2024-01-27T14:04:54;2.77;;;1.07;;
67041;SDS011;53949;47.790;18.750;2024-01-27T14:07:58;2.90;;;1.42;;
67041;SDS011;53949;47.790;18.750;2024-01-27T14:11:02;4.87;;;1.60;;
67041;SDS011;53949;47.790;18.750;2024-01-27T14:14:05;2.47;;;1.20;;
67041;SDS011;53949;47.790;18.750;2024-01-27T14:17:08;7.20;;;1.20;;
67041;SDS011;53949;47.790;18.750;2024-01-27T14:20:12;3.45;;;1.10;;
67041;SDS011;53949;47.790;18.750;2024-01-27T14:23:16;5.40;;;1.87;;
67041;SDS011;53949;47.790;18.750;2024-01-27T14:26:20;6.12;;;1.48;;
67041;SDS011;53949;47.790;18.750;2024-01-27T14:29:24;4.00;;;1.30;;
67041;SDS011;53949;47.790;18.750;2024-01-27T14:32:28;6.28;;;1.58;;
67041;SDS011;53949;47.790;18.750;2024-01-27T14:35:31;2.05;;;1.50;;
67041;SDS011;53949;47.790;18.750;2024-01-27T14:38:36;5.85;;;1.90;;
67041;SDS011;53949;47.790;18.750;2024-01-27T14:41:39;10.80;;;1.80;;
67041;SDS011;53949;47.790;18.750;2024-01-27T14:44:43;3.15;;;1.45;;
67041;SDS011;53949;47.790;18.750;2024-01-27T14:47:48;1.80;;;1.12;;
67041;SDS011;53949;47.790;18.750;2024-01-27T14:54:02;5.57;;;1.50;;
67041;SDS011;53949;47.790;18.750;2024-01-27T14:57:09;6.22;;;1.80;;
67041;SDS011;53949;47.790;18.750;2024-01-27T15:00:12;3.78;;;1.67;;
67041;SDS011;53949;47.790;18.750;2024-01-27T15:03:20;9.95;;;1.10;;
67041;SDS011;53949;47.790;18.750;2024-01-27T15:06:24;7.62;;;1.73;;
67041;SDS011;53949;47.790;18.750;2024-01-27T15:09:27;2.03;;;1.40;;
67041;SDS011;53949;47.790;18.750;2024-01-27T15:12:31;7.68;;;2.03;;
67041;SDS011;53949;47.790;18.750;2024-01-27T15:15:34;4.30;;;1.48;;
67041;SDS011;53949;47.790;18.750;2024-01-27T15:18:39;5.53;;;1.65;;
67041;SDS011;53949;47.790;18.750;2024-01-27T15:21:47;3.15;;;1.52;;
67041;SDS011;53949;47.790;18.750;2024-01-27T15:24:50;4.37;;;1.98;;
67041;SDS011;53949;47.790;18.750;2024-01-27T15:27:55;5.60;;;1.92;;
67041;SDS011;53949;47.790;18.750;2024-01-27T15:31:00;8.45;;;1.60;;
67041;SDS011;53949;47.790;18.750;2024-01-27T15:37:11;2.85;;;1.42;;
67041;SDS011;53949;47.790;18.750;2024-01-27T15:40:16;3.00;;;1.30;;
67041;SDS011;53949;47.790;18.750;2024-01-27T15:43:20;8.77;;;2.12;;
67041;SDS011;53949;47.790;18.750;2024-01-27T15:46:23;6.68;;;1.70;;
67041;SDS011;53949;47.790;18.750;2024-01-27T15:49:26;4.10;;;1.52;;
67041;SDS011;53949;47.790;18.750;2024-01-27T15:52:30;6.28;;;2.35;;
67041;SDS011;53949;47.790;18.750;2024-01-27T15:55:35;2.60;;;1.30;;
67041;SDS011;53949;47.790;18.750;2024-01-27T15:58:39;3.70;;;1.70;;
67041;SDS011;53949;47.790;18.750;2024-01-27T16:01:43;4.47;;;1.48;;
67041;SDS011;53949;47.790;18.750;2024-01-27T16:04:47;2.92;;;1.15;;
67041;SDS011;53949;47.790;18.750;2024-01-27T16:07:50;6.07;;;2.42;;
67041;SDS011;53949;47.790;18.750;2024-01-27T16:10:54;3.47;;;2.00;;
67041;SDS011;53949;47.790;18.750;2024-01-27T16:13:57;7.28;;;1.30;;
67041;SDS011;53949;47.790;18.750;2024-01-27T16:17:01;6.37;;;1.75;;
67041;SDS011;53949;47.790;18.750;2024-01-27T16:20:05;3.20;;;1.80;;
67041;SDS011;53949;47.790;18.750;2024-01-27T16:23:09;1.42;;;1.15;;
67041;SDS011;53949;47.790;18.750;2024-01-27T16:26:13;3.42;;;1.92;;
67041;SDS011;53949;47.790;18.750;2024-01-27T16:32:23;3.92;;;1.30;;
67041;SDS011;53949;47.790;18.750;2024-01-27T16:35:28;3.42;;;1.00;;
67041;SDS011;53949;47.790;18.750;2024-01-27T16:38:32;2.95;;;1.50;;
67041;SDS011;53949;47.790;18.750;2024-01-27T16:41:38;5.82;;;1.75;;
67041;SDS011;53949;47.790;18.750;2024-01-27T16:44:45;4.65;;;1.80;;
67041;SDS011;53949;47.790;18.750;2024-01-27T16:47:50;4.00;;;1.60;;
67041;SDS011;53949;47.790;18.750;2024-01-27T16:50:53;4.22;;;1.48;;
67041;SDS011;53949;47.790;18.750;2024-01-27T16:53:56;5.70;;;1.67;;
67041;SDS011;53949;47.790;18.750;2024-01-27T16:56:59;6.07;;;1.92;;
67041;SDS011;53949;47.790;18.750;2024-01-27T17:00:03;5.55;;;1.87;;
67041;SDS011;53949;47.790;18.750;2024-01-27T17:03:07;4.82;;;1.50;;
67041;SDS011;53949;47.790;18.750;2024-01-27T17:06:10;3.65;;;1.80;;
67041;SDS011;53949;47.790;18.750;2024-01-27T17:09:14;7.85;;;1.95;;
67041;SDS011;53949;47.790;18.750;2024-01-27T17:12:18;2.15;;;1.33;;
67041;SDS011;53949;47.790;18.750;2024-01-27T17:15:21;1.95;;;1.35;;
67041;SDS011;53949;47.790;18.750;2024-01-27T17:18:25;3.12;;;1.62;;
67041;SDS011;53949;47.790;18.750;2024-01-27T17:21:31;3.05;;;1.87;;
67041;SDS011;53949;47.790;18.750;2024-01-27T17:24:37;2.72;;;1.83;;
67041;SDS011;53949;47.790;18.750;2024-01-27T17:27:42;6.28;;;2.40;;
67041;SDS011;53949;47.790;18.750;2024-01-27T17:30:45;4.65;;;1.65;;
67041;SDS011;53949;47.790;18.750;2024-01-27T17:33:51;5.18;;;1.98;;
67041;SDS011;53949;47.790;18.750;2024-01-27T17:36:55;2.65;;;1.55;;
67041;SDS011;53949;47.790;18.750;2024-01-27T17:39:59;3.17;;;1.45;;
67041;SDS011;53949;47.790;18.750;2024-01-27T17:46:17;6.60;;;1.52;;
67041;SDS011;53949;47.790;18.750;2024-01-27T17:49:20;4.20;;;1.80;;
67041;SDS011;53949;47.790;18.750;2024-01-27T17:52:25;5.43;;;1.77;;
67041;SDS011;53949;47.790;18.750;2024-01-27T17:55:28;2.15;;;1.83;;
67041;SDS011;53949;47.790;18.750;2024-01-27T17:58:32;4.05;;;1.75;;
67041;SDS011;53949;47.790;18.750;2024-01-27T18:01:36;2.90;;;1.33;;
67041;SDS011;53949;47.790;18.750;2024-01-27T18:04:39;4.97;;;1.52;;
67041;SDS011;53949;47.790;18.750;2024-01-27T18:07:45;1.62;;;1.35;;
67041;SDS011;53949;47.790;18.750;2024-01-27T18:10:48;2.67;;;1.52;;
67041;SDS011;53949;47.790;18.750;2024-01-27T18:13:51;5.35;;;1.85;;
67041;SDS011;53949;47.790;18.750;2024-01-27T18:16:56;2.72;;;1.20;;
67041;SDS011;53949;47.790;18.750;2024-01-27T18:20:02;2.00;;;1.65;;
67041;SDS011;53949;47.790;18.750;2024-01-27T18:23:09;8.20;;;1.92;;
67041;SDS011;53949;47.790;18.750;2024-01-27T18:26:13;6.32;;;1.77;;
67041;SDS011;53949;47.790;18.750;2024-01-27T18:29:16;4.10;;;1.55;;
67041;SDS011;53949;47.790;18.750;2024-01-27T18:32:20;4.93;;;1.40;;
67041;SDS011;53949;47.790;18.750;2024-01-27T18:35:26;3.75;;;1.83;;
67041;SDS011;53949;47.790;18.750;2024-01-27T18:38:30;4.45;;;1.62;;
67041;SDS011;53949;47.790;18.750;2024-01-27T18:41:33;3.72;;;1.27;;
67041;SDS011;53949;47.790;18.750;2024-01-27T18:44:44;4.80;;;1.60;;
67041;SDS011;53949;47.790;18.750;2024-01-27T18:47:47;7.25;;;1.83;;